createdAt,value
2019-02-07T00:02:21.751Z,4.60
2019-02-07T00:04:52.865Z,4.60
2019-02-07T00:07:24.684Z,4.60
2019-02-07T00:09:56.473Z,4.60
2019-02-07T00:12:27.271Z,4.50
2019-02-07T00:14:57.847Z,4.50
2019-02-07T00:17:28.634Z,4.50
2019-02-07T00:20:00.328Z,4.50
2019-02-07T00:22:31.142Z,4.50
2019-02-07T00:25:01.901Z,4.50
2019-02-07T00:27:32.724Z,4.50
2019-02-07T00:30:03.406Z,4.50
2019-02-07T00:32:35.171Z,4.50
2019-02-07T00:35:06.292Z,4.50
2019-02-07T00:37:36.961Z,4.50
2019-02-07T00:40:10.980Z,4.50
2019-02-07T00:42:41.683Z,4.50
2019-02-07T00:45:13.685Z,4.50
2019-02-07T00:47:44.579Z,4.50
2019-02-07T00:50:15.283Z,4.50
2019-02-07T00:52:46.164Z,4.50
2019-02-07T00:55:16.950Z,4.50
2019-02-07T00:57:47.772Z,4.50
2019-02-07T01:00:20.859Z,4.50
2019-02-07T01:02:51.559Z,4.50
2019-02-07T01:05:23.025Z,4.50
2019-02-07T01:07:53.540Z,4.50
2019-02-07T01:10:25.099Z,4.50
2019-02-07T01:12:56.029Z,4.50
2019-02-07T01:15:27.208Z,4.40
2019-02-07T01:17:58.011Z,4.40
2019-02-07T01:20:28.781Z,4.50
2019-02-07T01:22:59.768Z,4.50
2019-02-07T01:25:30.661Z,4.40
2019-02-07T01:28:21.639Z,4.40
2019-02-07T01:30:52.412Z,4.40
2019-02-07T01:33:23.404Z,4.40
2019-02-07T01:35:54.199Z,4.40
2019-02-07T01:38:24.974Z,4.40
2019-02-07T01:40:55.834Z,4.40
2019-02-07T01:43:26.588Z,4.40
2019-02-07T01:45:57.596Z,4.40
2019-02-07T01:48:28.405Z,4.40
2019-02-07T01:50:59.181Z,4.40
2019-02-07T01:53:29.984Z,4.40
2019-02-07T01:56:01.679Z,4.40
2019-02-07T01:58:32.379Z,4.40
2019-02-07T02:01:03.149Z,4.40
2019-02-07T02:03:33.959Z,4.40
2019-02-07T02:06:04.857Z,4.40
2019-02-07T02:08:35.609Z,4.40
2019-02-07T02:11:06.482Z,4.40
2019-02-07T02:13:37.387Z,4.40
2019-02-07T02:16:08.084Z,4.40
2019-02-07T02:18:38.979Z,4.40
2019-02-07T02:21:09.720Z,4.40
2019-02-07T02:23:40.809Z,4.40
2019-02-07T02:26:11.923Z,4.40
2019-02-07T02:28:42.681Z,4.30
2019-02-07T02:31:13.469Z,4.40
2019-02-07T02:33:44.255Z,4.40
2019-02-07T02:36:15.072Z,4.40
2019-02-07T02:38:45.859Z,4.30
2019-02-07T02:41:16.607Z,4.30
2019-02-07T02:43:47.491Z,4.30
2019-02-07T02:46:18.185Z,4.30
2019-02-07T02:48:49.095Z,4.40
2019-02-07T02:51:19.961Z,4.40
2019-02-07T02:53:52.505Z,4.40
2019-02-07T02:56:23.367Z,4.30
2019-02-07T02:58:54.070Z,4.30
2019-02-07T03:01:38.856Z,4.30
2019-02-07T03:04:27.591Z,4.30
2019-02-07T03:07:32.731Z,4.30
2019-02-07T03:10:28.757Z,4.30
2019-02-07T03:13:30.519Z,4.30
2019-02-07T03:16:23.106Z,4.30
2019-02-07T03:19:20.626Z,4.30
2019-02-07T03:22:06.614Z,4.20
2019-02-07T03:25:11.553Z,4.10
2019-02-07T03:28:16.797Z,4.10
2019-02-07T03:31:04.113Z,4.00
2019-02-07T03:33:44.883Z,3.90
2019-02-07T03:36:29.747Z,3.90
2019-02-07T03:39:19.729Z,3.80
2019-02-07T03:42:12.787Z,3.80
2019-02-07T03:45:20.895Z,3.80
2019-02-07T03:48:13.766Z,3.80
2019-02-07T03:51:02.297Z,3.70
2019-02-07T03:54:10.201Z,3.60
2019-02-07T03:56:59.881Z,3.60
2019-02-07T03:59:58.383Z,3.60
2019-02-07T04:02:53.982Z,3.60
2019-02-07T04:05:42.767Z,3.60
2019-02-07T04:08:44.496Z,3.60
2019-02-07T04:11:46.361Z,3.60
2019-02-07T04:14:45.253Z,3.50
2019-02-07T04:17:38.218Z,3.50
2019-02-07T04:20:16.107Z,3.50
2019-02-07T04:23:08.960Z,3.40
2019-02-07T04:25:58.029Z,3.40
2019-02-07T04:28:47.087Z,3.30
2019-02-07T04:31:43.009Z,3.30
2019-02-07T04:34:32.686Z,3.30
2019-02-07T04:37:30.758Z,3.20
2019-02-07T04:40:22.997Z,3.20
2019-02-07T04:43:21.991Z,3.20
2019-02-07T04:46:09.621Z,3.10
2019-02-07T04:49:08.616Z,3.10
2019-02-07T04:51:57.270Z,3.00
2019-02-07T04:54:41.826Z,3.00
2019-02-07T04:57:30.582Z,3.00
2019-02-07T05:00:19.236Z,3.00
2019-02-07T05:03:07.787Z,3.00
2019-02-07T05:06:06.478Z,3.00
2019-02-07T05:08:44.684Z,2.90
2019-02-07T05:11:30.982Z,2.90
2019-02-07T05:14:20.044Z,2.90
2019-02-07T05:17:09.823Z,2.90
2019-02-07T05:19:59.192Z,2.80
2019-02-07T05:22:52.864Z,2.80
2019-02-07T05:25:54.855Z,2.80
2019-02-07T05:28:47.475Z,2.70
2019-02-07T05:31:33.778Z,2.70
2019-02-07T05:34:29.501Z,2.70
2019-02-07T05:37:25.108Z,2.70
2019-02-07T05:40:15.605Z,2.70
2019-02-07T05:43:04.361Z,2.70
2019-02-07T05:46:06.224Z,2.70
2019-02-07T05:49:05.832Z,2.70
2019-02-07T05:52:04.726Z,2.60
2019-02-07T05:54:53.487Z,2.60
2019-02-07T05:57:52.071Z,2.50
2019-02-07T06:00:35.292Z,2.50
2019-02-07T06:03:23.331Z,2.50
2019-02-07T06:06:28.267Z,2.50
2019-02-07T06:09:21.546Z,2.50
2019-02-07T06:12:20.017Z,2.40
2019-02-07T06:15:09.791Z,2.40
2019-02-07T06:18:18.108Z,2.40
2019-02-07T06:21:12.085Z,2.40
2019-02-07T06:24:01.933Z,2.30
2019-02-07T06:26:53.711Z,2.30
2019-02-07T06:29:43.369Z,2.20
2019-02-07T06:32:30.791Z,2.20
2019-02-07T06:35:14.650Z,2.10
2019-02-07T06:38:03.093Z,2.10
2019-02-07T06:40:58.083Z,2.00
2019-02-07T06:43:48.067Z,2.00
2019-02-07T06:46:36.514Z,2.10
2019-02-07T06:49:25.374Z,2.10
2019-02-07T06:52:15.049Z,2.00
2019-02-07T06:55:04.830Z,2.00
2019-02-07T06:57:58.708Z,2.00
2019-02-07T07:00:48.075Z,2.00
2019-02-07T07:03:26.793Z,2.00
2019-02-07T07:06:15.038Z,2.00
2019-02-07T07:09:23.067Z,2.00
2019-02-07T07:12:11.821Z,2.00
2019-02-07T07:15:00.283Z,1.90
2019-02-07T07:17:59.448Z,1.90
2019-02-07T07:20:49.230Z,2.00
2019-02-07T07:23:35.016Z,2.00
2019-02-07T07:26:37.082Z,2.00
2019-02-07T07:29:25.546Z,2.00
2019-02-07T07:32:18.586Z,2.00
2019-02-07T07:35:11.132Z,2.00
2019-02-07T07:38:03.701Z,2.00
2019-02-07T07:41:02.583Z,2.00
2019-02-07T07:44:01.156Z,2.00
2019-02-07T07:47:09.160Z,2.00
2019-02-07T07:49:55.152Z,2.00
2019-02-07T07:52:50.462Z,2.00
2019-02-07T07:55:30.007Z,1.90
2019-02-07T07:58:18.347Z,1.90
2019-02-07T08:04:03.743Z,1.90
2019-02-07T08:06:52.095Z,1.90
2019-02-07T08:09:53.542Z,2.00
2019-02-07T08:12:42.196Z,2.00
2019-02-07T08:15:31.155Z,2.10
2019-02-07T08:18:19.706Z,2.10
2019-02-07T08:21:09.996Z,2.10
2019-02-07T08:23:52.607Z,2.10
2019-02-07T08:26:41.467Z,2.10
2019-02-07T08:29:30.122Z,2.20
2019-02-07T08:32:18.776Z,2.20
2019-02-07T08:35:14.389Z,2.30
2019-02-07T08:38:09.906Z,2.30
2019-02-07T08:41:08.694Z,2.30
2019-02-07T08:43:49.371Z,2.40
2019-02-07T08:46:45.283Z,2.40
2019-02-07T08:49:34.978Z,2.40
2019-02-07T08:52:24.746Z,2.40
2019-02-07T08:55:13.393Z,2.40
2019-02-07T08:58:03.173Z,2.40
2019-02-07T09:00:42.920Z,2.40
2019-02-07T09:03:44.883Z,2.50
2019-02-07T09:06:23.807Z,2.50
2019-02-07T09:09:04.892Z,2.60
2019-02-07T09:11:53.638Z,3.00
2019-02-07T09:14:55.604Z,3.30
2019-02-07T09:17:39.462Z,3.40
2019-02-07T09:20:36.085Z,3.50
2019-02-07T09:23:31.701Z,3.70
2019-02-07T09:26:20.147Z,4.00
2019-02-07T09:29:17.913Z,4.40
2019-02-07T09:32:07.693Z,4.80
2019-02-07T09:34:53.172Z,5.00
2019-02-07T09:37:42.953Z,5.40
2019-02-07T09:40:31.608Z,5.80
2019-02-07T09:43:20.053Z,6.20
2019-02-07T09:46:08.912Z,6.40
2019-02-07T09:48:58.280Z,7.00
2019-02-07T09:51:48.164Z,7.40
2019-02-07T09:54:37.943Z,7.50
2019-02-07T09:57:24.549Z,7.70
2019-02-07T10:00:14.330Z,8.30
2019-02-07T10:03:09.945Z,8.60
2019-02-07T10:05:58.700Z,8.70
2019-02-07T10:08:51.656Z,8.80
2019-02-07T10:11:40.613Z,8.70
2019-02-07T10:14:30.085Z,8.50
2019-02-07T10:17:14.963Z,8.80
2019-02-07T10:20:03.709Z,8.90
2019-02-07T10:22:53.521Z,8.80
2019-02-07T10:25:42.465Z,8.70
2019-02-07T10:28:39.039Z,8.90
2019-02-07T10:31:31.635Z,8.90
2019-02-07T10:34:27.656Z,9.00
2019-02-07T10:37:10.476Z,9.20
2019-02-07T10:39:59.460Z,9.60
2019-02-07T10:42:52.212Z,10.10
2019-02-07T10:45:45.574Z,10.40
2019-02-07T10:48:44.530Z,10.80
2019-02-07T10:51:28.792Z,10.90
2019-02-07T10:54:19.595Z,11.10
2019-02-07T10:57:24.663Z,11.20
2019-02-07T11:00:10.177Z,11.10
2019-02-07T11:03:00.147Z,10.90
2019-02-07T11:05:56.736Z,10.50
2019-02-07T11:08:46.005Z,10.20
2019-02-07T11:11:22.881Z,10.10
2019-02-07T11:14:12.558Z,10.00
2019-02-07T11:17:03.774Z,10.00
2019-02-07T11:19:55.087Z,10.00
2019-02-07T11:22:57.155Z,9.90
2019-02-07T11:26:02.089Z,9.80
2019-02-07T11:28:54.121Z,9.70
2019-02-07T11:31:46.786Z,9.70
2019-02-07T11:34:29.891Z,9.60
2019-02-07T11:37:18.649Z,9.40
2019-02-07T11:40:22.353Z,9.40
2019-02-07T11:43:24.521Z,9.60
2019-02-07T11:46:13.072Z,9.60
2019-02-07T11:49:11.970Z,9.70
2019-02-07T11:51:55.010Z,9.60
2019-02-07T11:54:33.504Z,9.70
2019-02-07T11:57:22.872Z,9.60
2019-02-07T12:00:18.293Z,9.70
2019-02-07T12:03:06.733Z,9.60
2019-02-07T12:05:59.379Z,9.60
2019-02-07T12:09:04.725Z,9.50
2019-02-07T12:11:53.685Z,9.40
2019-02-07T12:14:35.476Z,9.40
2019-02-07T12:17:43.485Z,9.40
2019-02-07T12:20:33.266Z,9.40
2019-02-07T12:23:21.711Z,9.30
2019-02-07T12:26:02.688Z,9.40
2019-02-07T12:28:55.355Z,9.30
2019-02-07T12:31:51.154Z,9.30
2019-02-07T12:34:33.561Z,9.20
2019-02-07T12:37:15.659Z,9.10
2019-02-07T12:40:23.974Z,9.10
2019-02-07T12:43:12.627Z,8.90
2019-02-07T12:45:58.519Z,9.00
2019-02-07T12:49:00.711Z,8.90
2019-02-07T12:51:42.992Z,8.90
2019-02-07T12:54:25.427Z,8.80
2019-02-07T12:57:15.279Z,8.80
2019-02-07T13:00:17.245Z,8.80
2019-02-07T13:03:16.446Z,8.80
2019-02-07T13:06:13.393Z,8.90
2019-02-07T13:09:16.280Z,8.80
2019-02-07T13:12:04.215Z,8.70
2019-02-07T13:14:57.028Z,8.70
2019-02-07T13:17:52.890Z,8.60
2019-02-07T13:20:42.481Z,8.60
2019-02-07T13:23:32.157Z,8.60
2019-02-07T13:26:20.910Z,8.60
2019-02-07T13:29:10.068Z,8.60
2019-02-07T13:32:09.265Z,8.60
2019-02-07T13:34:58.127Z,8.60
2019-02-07T13:37:39.226Z,8.60
2019-02-07T13:40:29.076Z,8.50
2019-02-07T13:43:10.768Z,8.50
2019-02-07T13:46:03.312Z,8.40
2019-02-07T13:48:47.055Z,8.40
2019-02-07T13:51:49.326Z,8.30
2019-02-07T13:54:36.046Z,8.30
2019-02-07T13:57:29.907Z,8.20
2019-02-07T14:00:18.867Z,8.20
2019-02-07T14:03:08.545Z,8.10
2019-02-07T14:05:59.684Z,7.90
2019-02-07T14:08:48.615Z,7.80
2019-02-07T14:11:29.794Z,7.70
2019-02-07T14:14:34.630Z,7.60
2019-02-07T14:17:30.447Z,7.40
2019-02-07T14:20:19.101Z,7.20
2019-02-07T14:23:07.446Z,7.20
2019-02-07T14:26:06.239Z,7.10
2019-02-07T14:28:54.688Z,7.10
2019-02-07T14:31:45.490Z,7.10
2019-02-07T14:34:47.559Z,7.00
2019-02-07T14:37:40.101Z,6.90
2019-02-07T14:40:37.358Z,6.90
2019-02-07T14:43:27.143Z,6.80
2019-02-07T14:46:19.887Z,6.70
2019-02-07T14:48:50.612Z,6.60
2019-02-07T14:51:21.275Z,6.60
2019-02-07T14:53:52.049Z,6.60
2019-02-07T14:56:22.747Z,6.50
2019-02-07T14:58:53.946Z,6.50
2019-02-07T15:01:24.723Z,6.40
2019-02-07T15:03:55.604Z,6.30
2019-02-07T15:06:26.337Z,6.30
2019-02-07T15:08:57.170Z,6.20
2019-02-07T15:11:28.271Z,6.10
2019-02-07T15:13:59.077Z,6.00
2019-02-07T15:16:29.873Z,6.00
2019-02-07T15:19:00.430Z,6.00
2019-02-07T15:21:30.969Z,5.90
2019-02-07T15:24:01.906Z,5.90
2019-02-07T15:26:32.665Z,5.80
2019-02-07T15:29:03.655Z,5.80
2019-02-07T15:31:34.441Z,5.80
2019-02-07T15:34:05.744Z,5.70
2019-02-07T15:36:36.395Z,5.70
2019-02-07T15:39:09.119Z,5.60
2019-02-07T15:41:39.947Z,5.60
2019-02-07T15:44:10.775Z,5.60
2019-02-07T15:46:41.476Z,5.50
2019-02-07T15:49:12.264Z,5.50
2019-02-07T15:51:42.972Z,5.40
2019-02-07T15:54:13.737Z,5.40
2019-02-07T15:56:44.467Z,5.40
2019-02-07T15:59:43.428Z,5.30
2019-02-07T16:02:21.849Z,5.20
2019-02-07T16:04:52.816Z,5.20
2019-02-07T16:07:23.339Z,5.20
2019-02-07T16:09:54.194Z,5.10
2019-02-07T16:12:25.286Z,5.10
2019-02-07T16:14:56.067Z,5.10
2019-02-07T16:17:26.778Z,5.10
2019-02-07T16:19:57.670Z,5.00
2019-02-07T16:22:28.530Z,5.00
2019-02-07T16:24:59.335Z,5.00
2019-02-07T16:27:30.276Z,5.00
2019-02-07T16:30:01.210Z,5.00
2019-02-07T16:32:31.811Z,4.90
2019-02-07T16:35:02.546Z,4.90
2019-02-07T16:37:33.666Z,4.80
2019-02-07T16:40:04.395Z,4.70
2019-02-07T16:42:35.069Z,4.70
2019-02-07T16:45:08.071Z,4.60
2019-02-07T16:47:38.839Z,4.50
2019-02-07T16:50:11.778Z,4.50
2019-02-07T16:52:42.371Z,4.50
2019-02-07T16:55:13.262Z,4.40
2019-02-07T16:57:44.137Z,4.30
2019-02-07T17:00:17.363Z,4.30
2019-02-07T17:02:48.118Z,4.20
2019-02-07T17:05:19.772Z,4.20
2019-02-07T17:07:53.156Z,4.20
2019-02-07T17:10:25.313Z,4.10
2019-02-07T17:12:56.081Z,4.10
2019-02-07T17:15:26.750Z,4.10
2019-02-07T17:17:57.774Z,4.00
2019-02-07T17:20:29.802Z,4.10
2019-02-07T17:23:00.563Z,4.00
2019-02-07T17:25:31.335Z,4.00
2019-02-07T17:28:02.135Z,3.90
2019-02-07T17:30:33.227Z,3.90
2019-02-07T17:33:03.923Z,3.80
2019-02-07T17:35:35.811Z,3.80
2019-02-07T17:38:06.514Z,3.80
2019-02-07T17:40:37.071Z,3.80
2019-02-07T17:43:07.747Z,3.70
2019-02-07T17:45:38.518Z,3.70
2019-02-07T17:48:09.338Z,3.70
2019-02-07T17:50:40.213Z,3.60
2019-02-07T17:53:10.899Z,3.60
2019-02-07T17:55:41.809Z,3.60
2019-02-07T17:58:12.871Z,3.60
2019-02-07T18:00:52.976Z,3.60
2019-02-07T18:03:23.919Z,3.60
2019-02-07T18:05:54.739Z,3.60
2019-02-07T18:08:25.507Z,3.50
2019-02-07T18:10:56.446Z,3.50
2019-02-07T18:13:27.238Z,3.50
2019-02-07T18:15:57.979Z,3.50
2019-02-07T18:18:28.779Z,3.30
2019-02-07T18:20:59.570Z,3.40
2019-02-07T18:23:30.578Z,3.30
2019-02-07T18:26:01.431Z,3.30
2019-02-07T18:28:32.047Z,3.30
2019-02-07T18:31:02.894Z,3.30
2019-02-07T18:33:33.603Z,3.30
2019-02-07T18:36:04.391Z,3.30
2019-02-07T18:38:34.964Z,3.20
2019-02-07T18:41:05.727Z,3.20
2019-02-07T18:43:36.315Z,3.20
2019-02-07T18:46:07.090Z,3.20
2019-02-07T18:48:37.853Z,3.20
2019-02-07T18:51:08.662Z,3.20
2019-02-07T18:53:39.439Z,3.20
2019-02-07T18:56:10.226Z,3.10
2019-02-07T18:58:40.801Z,3.10
2019-02-07T19:01:11.592Z,3.10
2019-02-07T19:03:42.379Z,3.10
2019-02-07T19:06:13.178Z,3.10
2019-02-07T19:08:43.939Z,3.10
2019-02-07T19:11:14.742Z,3.00
2019-02-07T19:13:45.422Z,3.00
2019-02-07T19:16:17.523Z,3.00
2019-02-07T19:18:48.262Z,2.90
2019-02-07T19:21:19.069Z,2.90
2019-02-07T19:23:49.814Z,2.90
2019-02-07T19:26:20.695Z,2.90
2019-02-07T19:28:51.361Z,2.90
2019-02-07T19:31:22.093Z,2.90
2019-02-07T19:33:52.810Z,2.80
2019-02-07T19:36:23.621Z,2.80
2019-02-07T19:38:54.401Z,2.80
2019-02-07T19:41:25.283Z,2.80
2019-02-07T19:43:56.033Z,2.80
2019-02-07T19:46:26.982Z,2.80
2019-02-07T19:48:57.831Z,2.80
2019-02-07T19:51:28.639Z,2.80
2019-02-07T19:53:59.508Z,2.80
2019-02-07T19:56:30.412Z,2.90
2019-02-07T19:59:01.193Z,2.90
2019-02-07T20:01:31.998Z,3.00
2019-02-07T20:04:02.643Z,3.00
2019-02-07T20:06:33.452Z,3.00
2019-02-07T20:09:04.723Z,3.00
2019-02-07T20:11:35.653Z,3.00
2019-02-07T20:14:06.599Z,3.10
2019-02-07T20:16:37.350Z,3.10
2019-02-07T20:19:08.176Z,3.10
2019-02-07T20:21:39.025Z,3.10
2019-02-07T20:24:09.731Z,3.10
2019-02-07T20:26:41.667Z,3.10
2019-02-07T20:29:12.866Z,3.20
2019-02-07T20:31:43.646Z,3.20
2019-02-07T20:34:14.501Z,3.20
2019-02-07T20:37:09.082Z,3.20
2019-02-07T20:39:39.941Z,3.20
2019-02-07T20:42:10.683Z,3.20
2019-02-07T20:44:41.392Z,3.20
2019-02-07T20:47:12.198Z,3.10
2019-02-07T20:49:42.941Z,3.20
2019-02-07T20:52:13.799Z,3.20
2019-02-07T20:54:44.327Z,3.10
2019-02-07T20:57:15.289Z,3.10
2019-02-07T20:59:46.031Z,3.10
2019-02-07T21:02:16.782Z,3.10
2019-02-07T21:04:47.449Z,3.10
2019-02-07T21:07:18.375Z,3.10
2019-02-07T21:09:48.976Z,3.00
2019-02-07T21:12:20.037Z,3.00
2019-02-07T21:14:50.875Z,3.00
2019-02-07T21:17:21.556Z,3.00
2019-02-07T21:19:52.252Z,3.00
2019-02-07T21:22:23.481Z,3.00
2019-02-07T21:24:54.195Z,3.00
2019-02-07T21:27:25.010Z,3.00
2019-02-07T21:29:55.717Z,3.00
2019-02-07T21:32:26.883Z,3.00
2019-02-07T21:34:57.939Z,2.90
2019-02-07T21:37:29.083Z,3.00
2019-02-07T21:39:59.778Z,3.00
2019-02-07T21:42:30.410Z,2.90
2019-02-07T21:45:01.223Z,2.90
2019-02-07T21:47:33.075Z,3.00
2019-02-07T21:50:03.744Z,2.90
2019-02-07T21:52:41.652Z,2.90
2019-02-07T21:55:07.475Z,2.90
2019-02-07T21:57:38.336Z,2.90
2019-02-07T22:00:16.201Z,2.90
2019-02-07T22:02:47.186Z,2.90
2019-02-07T22:05:17.885Z,2.90
2019-02-07T22:07:48.637Z,2.80
2019-02-07T22:10:19.232Z,2.80
2019-02-07T22:12:50.032Z,2.80
2019-02-07T22:15:21.802Z,2.80
2019-02-07T22:17:54.454Z,2.80
2019-02-07T22:20:25.742Z,2.80
2019-02-07T22:22:56.666Z,2.80
2019-02-07T22:25:27.523Z,2.80
2019-02-07T22:27:58.127Z,2.70
2019-02-07T22:30:31.137Z,2.70
2019-02-07T22:33:01.884Z,2.70
2019-02-07T22:35:32.596Z,2.70
2019-02-07T22:38:03.416Z,2.70
2019-02-07T22:40:34.337Z,2.70
2019-02-07T22:43:05.165Z,2.70
2019-02-07T22:45:35.871Z,2.70
2019-02-07T22:48:07.381Z,2.60
2019-02-07T22:50:37.895Z,2.70
2019-02-07T22:53:08.707Z,2.60
2019-02-07T22:55:39.471Z,2.70
2019-02-07T22:58:10.557Z,2.60
2019-02-07T23:01:19.431Z,2.60
2019-02-07T23:03:55.333Z,2.60
2019-02-07T23:06:26.147Z,2.60
2019-02-07T23:08:57.067Z,2.60
2019-02-07T23:11:27.715Z,2.60
2019-02-07T23:13:58.530Z,2.60
2019-02-07T23:16:29.689Z,2.60
2019-02-07T23:19:00.502Z,2.60
2019-02-07T23:21:31.337Z,2.50
2019-02-07T23:24:02.145Z,2.60
2019-02-07T23:26:33.039Z,2.50
2019-02-07T23:29:03.842Z,2.50
2019-02-07T23:31:34.602Z,2.60
2019-02-07T23:34:05.795Z,2.60
2019-02-07T23:36:36.587Z,2.60
2019-02-07T23:39:09.182Z,2.60
2019-02-07T23:41:39.896Z,2.50
2019-02-07T23:44:11.037Z,2.60
2019-02-07T23:46:41.871Z,2.60
2019-02-07T23:49:12.685Z,2.50
2019-02-07T23:51:43.359Z,2.50
2019-02-07T23:54:14.139Z,2.50
2019-02-07T23:56:44.832Z,2.60
2019-02-07T23:59:15.711Z,2.60
